createdAt,value
2017-11-04T00:00:16.827Z,120.73
2017-11-04T00:02:44.252Z,129.30
2017-11-04T00:05:12.021Z,117.07
2017-11-04T00:07:39.506Z,121.07
2017-11-04T00:10:07.334Z,125.43
2017-11-04T00:12:34.782Z,117.60
2017-11-04T00:15:02.261Z,113.53
2017-11-04T00:17:29.697Z,111.33
2017-11-04T00:19:57.375Z,125.80
2017-11-04T00:22:25.589Z,134.10
2017-11-04T00:24:53.783Z,150.57
2017-11-04T00:27:21.993Z,131.70
2017-11-04T00:29:49.821Z,129.17
2017-11-04T00:32:18.453Z,126.47
2017-11-04T00:34:46.629Z,118.90
2017-11-04T00:37:14.496Z,116.00
2017-11-04T00:39:41.932Z,134.07
2017-11-04T00:42:09.406Z,137.87
2017-11-04T00:44:36.837Z,142.00
2017-11-04T00:47:04.317Z,141.23
2017-11-04T00:49:32.085Z,143.97
2017-11-04T00:51:59.542Z,126.73
2017-11-04T00:54:27.001Z,112.30
2017-11-04T00:56:54.773Z,119.07
2017-11-04T00:59:22.613Z,132.63
2017-11-04T01:01:50.429Z,113.67
2017-11-04T01:04:18.645Z,127.73
2017-11-04T01:06:46.078Z,126.60
2017-11-04T01:09:15.129Z,116.23
2017-11-04T01:11:42.889Z,119.03
2017-11-04T01:14:10.324Z,115.80
2017-11-04T01:16:37.824Z,116.73
2017-11-04T01:19:05.365Z,115.77
2017-11-04T01:21:33.939Z,115.20
2017-11-04T01:24:01.397Z,112.33
2017-11-04T01:26:29.881Z,108.60
2017-11-04T01:28:58.465Z,101.77
2017-11-04T01:31:25.905Z,106.60
2017-11-04T01:33:53.345Z,104.20
2017-11-04T01:36:20.837Z,111.80
2017-11-04T01:38:48.269Z,100.13
2017-11-04T01:41:16.057Z,90.30
2017-11-04T01:43:43.929Z,107.53
2017-11-04T01:46:12.127Z,94.87
2017-11-04T01:48:40.333Z,94.93
2017-11-04T01:51:08.545Z,101.30
2017-11-04T01:53:36.317Z,88.30
2017-11-04T01:56:04.081Z,95.23
2017-11-04T01:58:31.517Z,99.03
2017-11-04T02:00:59.813Z,94.50
2017-11-04T02:03:27.253Z,105.80
2017-11-04T02:05:54.725Z,94.00
2017-11-04T02:08:23.005Z,104.27
2017-11-04T02:10:51.485Z,102.00
2017-11-04T02:13:19.313Z,96.87
2017-11-04T02:15:47.521Z,99.77
2017-11-04T02:18:15.801Z,91.47
2017-11-04T02:20:43.998Z,105.10
2017-11-04T02:23:12.194Z,88.97
2017-11-04T02:25:41.444Z,89.37
2017-11-04T02:28:08.909Z,89.30
2017-11-04T02:30:36.729Z,94.77
2017-11-04T02:33:04.946Z,84.97
2017-11-04T02:35:33.145Z,101.43
2017-11-04T02:38:01.400Z,85.87
2017-11-04T02:40:29.846Z,85.70
2017-11-04T02:42:57.677Z,90.90
2017-11-04T02:45:25.201Z,89.10
2017-11-04T02:47:52.656Z,91.07
2017-11-04T02:50:20.849Z,90.17
2017-11-04T02:52:48.338Z,92.47
2017-11-04T02:55:16.099Z,87.80
2017-11-04T02:57:43.916Z,79.63
2017-11-04T03:00:12.113Z,82.20
2017-11-04T03:02:40.322Z,88.63
2017-11-04T03:05:08.582Z,77.80
2017-11-04T03:07:36.861Z,77.97
2017-11-04T03:10:04.548Z,79.73
2017-11-04T03:12:31.979Z,77.50
2017-11-04T03:14:59.432Z,77.30
2017-11-04T03:17:27.204Z,69.33
2017-11-04T03:19:54.636Z,77.43
2017-11-04T03:22:22.065Z,71.80
2017-11-04T03:24:50.270Z,70.83
2017-11-04T03:27:17.773Z,74.83
2017-11-04T03:29:45.214Z,83.93
2017-11-04T03:32:12.970Z,71.57
2017-11-04T03:34:40.404Z,82.97
2017-11-04T03:37:07.885Z,75.70
2017-11-04T03:39:35.649Z,74.63
2017-11-04T03:42:03.083Z,79.10
2017-11-04T03:44:30.565Z,81.50
2017-11-04T03:46:58.036Z,66.37
2017-11-04T03:49:25.466Z,78.70
2017-11-04T03:51:52.902Z,65.60
2017-11-04T03:54:21.421Z,65.70
2017-11-04T03:56:48.969Z,67.67
2017-11-04T03:59:16.429Z,68.63
2017-11-04T04:01:43.882Z,70.70
2017-11-04T04:04:11.331Z,67.70
2017-11-04T04:06:38.785Z,65.13
2017-11-04T04:09:06.846Z,61.30
2017-11-04T04:11:35.146Z,66.93
2017-11-04T04:14:03.411Z,72.80
2017-11-04T04:16:31.250Z,66.43
2017-11-04T04:18:59.552Z,70.73
2017-11-04T04:21:27.821Z,67.47
2017-11-04T04:23:56.304Z,60.83
2017-11-04T04:26:24.898Z,72.90
2017-11-04T04:28:53.824Z,76.50
2017-11-04T04:31:23.780Z,59.13
2017-11-04T04:33:51.598Z,64.90
2017-11-04T04:36:20.530Z,64.10
2017-11-04T04:38:48.225Z,61.73
2017-11-04T04:41:16.427Z,60.43
2017-11-04T04:43:45.374Z,67.50
2017-11-04T04:46:12.797Z,64.00
2017-11-04T04:48:40.993Z,65.10
2017-11-04T04:51:09.304Z,64.57
2017-11-04T04:53:37.843Z,62.23
2017-11-04T04:56:05.667Z,58.20
2017-11-04T04:58:33.857Z,63.50
2017-11-04T05:01:02.817Z,73.07
2017-11-04T05:03:30.274Z,56.87
2017-11-04T05:05:58.472Z,65.77
2017-11-04T05:08:26.926Z,60.07
2017-11-04T05:10:54.792Z,63.70
2017-11-04T05:13:22.221Z,70.53
2017-11-04T05:15:49.909Z,68.97
2017-11-04T05:18:17.365Z,59.53
2017-11-04T05:20:44.821Z,73.57
2017-11-04T05:23:13.301Z,61.40
2017-11-04T05:25:41.129Z,66.00
2017-11-04T05:28:09.325Z,65.43
2017-11-04T05:30:37.674Z,61.23
2017-11-04T05:33:05.685Z,60.00
2017-11-04T05:35:33.858Z,68.27
2017-11-04T05:38:01.629Z,66.57
2017-11-04T05:40:29.070Z,63.93
2017-11-04T05:42:56.908Z,63.40
2017-11-04T05:45:25.120Z,66.70
2017-11-04T05:47:52.556Z,68.03
2017-11-04T05:50:19.985Z,70.67
2017-11-04T05:52:48.526Z,65.47
2017-11-04T05:55:16.717Z,69.77
2017-11-04T05:57:44.909Z,65.77
2017-11-04T06:00:13.146Z,74.93
2017-11-04T06:02:41.344Z,71.40
2017-11-04T06:05:09.538Z,76.40
2017-11-04T06:07:37.797Z,77.50
2017-11-04T06:10:06.053Z,75.27
2017-11-04T06:12:33.916Z,77.20
2017-11-04T06:15:01.693Z,77.70
2017-11-04T06:17:29.149Z,84.00
2017-11-04T06:19:56.596Z,76.33
2017-11-04T06:22:24.062Z,83.93
2017-11-04T06:24:51.917Z,75.87
2017-11-04T06:27:19.372Z,79.97
2017-11-04T06:29:46.814Z,79.83
2017-11-04T06:32:14.293Z,70.17
2017-11-04T06:34:41.745Z,75.57
2017-11-04T06:37:09.530Z,73.93
2017-11-04T06:39:38.521Z,79.53
2017-11-04T06:42:06.341Z,72.47
2017-11-04T06:44:34.860Z,77.67
2017-11-04T06:47:03.449Z,71.13
2017-11-04T06:49:31.284Z,67.00
2017-11-04T06:51:59.390Z,80.40
2017-11-04T06:54:27.590Z,69.20
2017-11-04T06:56:55.829Z,72.10
2017-11-04T06:59:23.659Z,72.10
2017-11-04T07:01:52.276Z,75.77
2017-11-04T07:04:20.532Z,73.53
2017-11-04T07:06:49.109Z,70.17
2017-11-04T07:09:17.328Z,69.07
2017-11-04T07:11:44.746Z,67.77
2017-11-04T07:14:12.507Z,69.90
2017-11-04T07:16:39.963Z,72.10
2017-11-04T07:19:07.397Z,70.07
2017-11-04T07:21:35.085Z,65.47
2017-11-04T07:24:02.906Z,73.00
2017-11-04T07:26:31.100Z,68.00
2017-11-04T07:28:58.589Z,64.90
2017-11-04T07:31:26.031Z,57.87
2017-11-04T07:33:53.461Z,61.60
2017-11-04T07:36:21.173Z,65.50
2017-11-04T07:38:49.001Z,68.57
2017-11-04T07:41:17.226Z,66.83
2017-11-04T07:43:45.418Z,64.50
2017-11-04T07:46:13.649Z,68.93
2017-11-04T07:48:41.923Z,60.73
2017-11-04T07:51:10.097Z,59.20
2017-11-04T07:53:38.013Z,64.17
2017-11-04T07:56:06.209Z,63.30
2017-11-04T07:58:33.701Z,60.00
2017-11-04T08:01:01.159Z,61.03
2017-11-04T08:03:28.591Z,58.77
2017-11-04T08:05:56.172Z,57.70
2017-11-04T08:08:23.609Z,52.70
2017-11-04T08:10:51.101Z,49.93
2017-11-04T08:13:18.948Z,53.87
2017-11-04T08:15:46.404Z,55.30
2017-11-04T08:18:14.973Z,53.60
2017-11-04T08:20:42.857Z,55.90
2017-11-04T08:23:10.321Z,59.83
2017-11-04T08:25:37.769Z,55.33
2017-11-04T08:28:05.502Z,56.23
2017-11-04T08:30:33.696Z,53.00
2017-11-04T08:33:01.133Z,53.30
2017-11-04T08:35:29.653Z,54.53
2017-11-04T08:37:57.229Z,54.37
2017-11-04T08:40:25.040Z,45.70
2017-11-04T08:42:53.492Z,48.63
2017-11-04T08:45:21.321Z,51.37
2017-11-04T08:47:49.521Z,43.93
2017-11-04T08:50:18.812Z,58.93
2017-11-04T08:52:46.253Z,48.83
2017-11-04T08:55:14.838Z,50.30
2017-11-04T08:57:42.581Z,49.27
2017-11-04T09:00:10.417Z,50.80
2017-11-04T09:02:38.621Z,47.93
2017-11-04T09:05:06.061Z,47.13
2017-11-04T09:07:34.280Z,44.43
2017-11-04T09:10:01.726Z,46.27
2017-11-04T09:12:29.194Z,52.17
2017-11-04T09:14:57.019Z,47.70
2017-11-04T09:17:24.854Z,46.67
2017-11-04T09:19:53.801Z,45.07
2017-11-04T09:22:21.264Z,47.47
2017-11-04T09:24:48.725Z,45.10
2017-11-04T09:27:16.186Z,51.60
2017-11-04T09:29:43.645Z,47.80
2017-11-04T09:32:11.093Z,49.43
2017-11-04T09:34:38.879Z,51.73
2017-11-04T09:37:06.310Z,49.43
2017-11-04T09:39:33.745Z,44.67
2017-11-04T09:42:01.441Z,43.40
2017-11-04T09:44:30.008Z,49.53
2017-11-04T09:46:57.440Z,47.93
2017-11-04T09:49:25.655Z,44.03
2017-11-04T09:51:53.937Z,42.87
2017-11-04T09:54:21.392Z,41.10
2017-11-04T09:56:49.155Z,43.83
2017-11-04T09:59:17.429Z,46.80
2017-11-04T10:01:44.887Z,47.03
2017-11-04T10:04:12.345Z,44.97
2017-11-04T10:06:39.781Z,47.70
2017-11-04T10:09:07.221Z,44.23
2017-11-04T10:11:35.742Z,42.93
2017-11-04T10:14:03.200Z,41.67
2017-11-04T10:18:05.688Z,45.47
2017-11-04T10:20:33.235Z,42.13
2017-11-04T10:23:00.729Z,44.73
2017-11-04T10:25:28.264Z,46.23
2017-11-04T10:27:55.690Z,43.27
2017-11-04T10:30:23.129Z,43.70
2017-11-04T10:32:51.469Z,42.37
2017-11-04T10:35:18.904Z,40.97
2017-11-04T10:37:46.365Z,36.63
2017-11-04T10:40:14.131Z,39.07
2017-11-04T10:42:42.544Z,38.43
2017-11-04T10:45:10.162Z,36.23
2017-11-04T10:47:37.596Z,35.97
2017-11-04T10:50:05.091Z,37.70
2017-11-04T10:52:32.521Z,35.10
2017-11-04T10:55:00.308Z,39.13
2017-11-04T10:57:27.751Z,36.10
2017-11-04T10:59:55.172Z,36.17
2017-11-04T11:02:23.385Z,36.13
2017-11-04T11:04:50.820Z,32.67
2017-11-04T11:07:18.257Z,29.83
2017-11-04T11:09:46.885Z,34.83
2017-11-04T11:12:14.306Z,31.97
2017-11-04T11:14:42.516Z,28.83
2017-11-04T11:17:09.945Z,36.87
2017-11-04T11:19:38.147Z,32.60
2017-11-04T11:22:05.581Z,32.47
2017-11-04T11:24:33.273Z,34.83
2017-11-04T11:27:00.708Z,35.30
2017-11-04T11:29:28.185Z,29.73
2017-11-04T11:31:55.637Z,33.57
2017-11-04T11:34:23.104Z,31.90
2017-11-04T11:36:50.532Z,35.37
2017-11-04T11:39:18.046Z,33.80
2017-11-04T11:41:45.585Z,36.90
2017-11-04T11:44:13.034Z,37.60
2017-11-04T11:46:40.797Z,33.50
2017-11-04T11:49:08.253Z,38.03
2017-11-04T11:51:35.694Z,36.20
2017-11-04T11:54:03.386Z,34.80
2017-11-04T11:56:30.825Z,35.23
2017-11-04T11:58:58.301Z,38.70
2017-11-04T12:01:25.751Z,38.80
2017-11-04T12:03:53.205Z,40.37
2017-11-04T12:06:20.637Z,34.47
2017-11-04T12:08:48.089Z,39.50
2017-11-04T12:11:15.527Z,39.23
2017-11-04T12:13:43.753Z,37.23
2017-11-04T12:16:11.202Z,40.07
2017-11-04T12:18:38.678Z,40.50
2017-11-04T12:21:06.097Z,38.13
2017-11-04T12:23:33.885Z,40.27
2017-11-04T12:26:01.321Z,38.43
2017-11-04T12:28:28.804Z,36.33
2017-11-04T12:30:56.249Z,35.83
2017-11-04T12:33:23.684Z,38.57
2017-11-04T12:35:51.109Z,44.97
2017-11-04T12:38:18.830Z,39.40
2017-11-04T12:40:46.290Z,44.63
2017-11-04T12:43:13.733Z,40.53
2017-11-04T12:45:41.180Z,39.43
2017-11-04T12:48:08.771Z,39.33
2017-11-04T12:50:36.226Z,38.63
2017-11-04T12:53:03.957Z,40.10
2017-11-04T12:55:31.394Z,39.33
2017-11-04T12:57:59.621Z,39.30
2017-11-04T13:00:27.180Z,42.00
2017-11-04T13:02:54.625Z,205.93
2017-11-04T13:05:22.160Z,38.23
2017-11-04T13:07:49.683Z,38.43
2017-11-04T13:10:17.242Z,40.90
2017-11-04T13:12:44.673Z,39.23
2017-11-04T13:15:12.433Z,38.13
2017-11-04T13:17:39.882Z,38.27
2017-11-04T13:20:07.349Z,40.83
2017-11-04T13:22:35.113Z,39.90
2017-11-04T13:25:02.567Z,40.40
2017-11-04T13:27:30.220Z,38.63
2017-11-04T13:29:57.965Z,38.57
2017-11-04T13:32:25.393Z,43.97
2017-11-04T13:34:52.915Z,43.90
2017-11-04T13:37:20.368Z,42.93
2017-11-04T13:39:47.792Z,39.47
2017-11-04T13:42:15.285Z,39.77
2017-11-04T13:44:43.043Z,44.63
2017-11-04T13:47:10.541Z,43.70
2017-11-04T13:49:38.777Z,43.93
2017-11-04T13:52:06.541Z,41.27
2017-11-04T13:54:33.976Z,42.93
2017-11-04T13:57:01.407Z,43.83
2017-11-04T13:59:29.632Z,44.57
2017-11-04T14:01:57.114Z,46.63
2017-11-04T14:04:24.602Z,47.83
2017-11-04T14:06:53.053Z,47.73
2017-11-04T14:09:20.485Z,45.53
2017-11-04T14:11:47.929Z,46.77
2017-11-04T14:14:15.377Z,49.13
2017-11-04T14:16:42.856Z,47.63
2017-11-04T14:19:10.284Z,49.43
2017-11-04T14:21:38.004Z,52.87
2017-11-04T14:24:05.549Z,54.17
2017-11-04T14:26:33.092Z,49.57
2017-11-04T14:29:00.549Z,54.10
2017-11-04T14:31:27.985Z,53.37
2017-11-04T14:33:55.470Z,53.97
2017-11-04T14:36:22.920Z,48.17
2017-11-04T14:38:50.357Z,53.50
2017-11-04T14:41:17.877Z,50.03
2017-11-04T14:43:45.593Z,49.60
2017-11-04T14:46:13.071Z,63.50
2017-11-04T14:48:40.513Z,55.00
2017-11-04T14:51:07.973Z,58.47
2017-11-04T14:53:40.554Z,60.93
2017-11-04T14:56:11.830Z,57.83
2017-11-04T14:58:39.354Z,53.13
2017-11-04T15:01:06.790Z,55.27
2017-11-04T15:03:34.269Z,41.87
2017-11-04T15:06:01.708Z,42.20
2017-11-04T15:08:29.206Z,43.87
2017-11-04T15:10:56.637Z,41.40
2017-11-04T15:13:24.102Z,36.53
2017-11-04T15:15:51.558Z,33.87
2017-11-04T15:18:19.225Z,31.10
2017-11-04T15:20:46.665Z,37.67
2017-11-04T15:23:14.143Z,35.40
2017-11-04T15:25:41.584Z,34.87
2017-11-04T15:28:09.058Z,36.03
2017-11-04T15:30:36.505Z,35.50
2017-11-04T15:33:04.201Z,36.97
2017-11-04T15:35:32.401Z,33.60
2017-11-04T15:38:00.622Z,34.00
2017-11-04T15:40:28.361Z,29.90
2017-11-04T15:42:55.794Z,32.20
2017-11-04T15:45:23.998Z,30.60
2017-11-04T15:47:51.778Z,29.07
2017-11-04T15:50:19.377Z,34.70
2017-11-04T15:52:46.810Z,33.23
2017-11-04T15:55:14.558Z,25.63
2017-11-04T15:57:41.993Z,32.03
2017-11-04T16:00:09.430Z,27.67
2017-11-04T16:02:37.701Z,31.87
2017-11-04T16:05:05.909Z,34.43
2017-11-04T16:07:33.340Z,39.37
2017-11-04T16:10:01.557Z,32.70
2017-11-04T16:12:28.989Z,30.43
2017-11-04T16:14:56.417Z,30.13
2017-11-04T16:17:24.958Z,33.93
2017-11-04T16:19:52.415Z,36.07
2017-11-04T16:22:19.850Z,30.53
2017-11-04T16:24:47.294Z,29.97
2017-11-04T16:27:14.786Z,24.40
2017-11-04T16:29:42.234Z,28.83
2017-11-04T16:32:09.680Z,32.80
2017-11-04T16:34:37.163Z,30.37
2017-11-04T16:37:04.586Z,33.73
2017-11-04T16:39:32.365Z,29.13
2017-11-04T16:41:59.810Z,32.47
2017-11-04T16:44:27.241Z,31.97
2017-11-04T16:46:55.457Z,37.17
2017-11-04T16:49:22.913Z,36.13
2017-11-04T16:51:50.349Z,34.57
2017-11-04T16:54:17.845Z,33.73
2017-11-04T16:56:45.390Z,34.77
2017-11-04T16:59:12.838Z,35.63
2017-11-04T17:01:40.605Z,33.70
2017-11-04T17:04:08.057Z,41.97
2017-11-04T17:06:35.529Z,39.73
2017-11-04T17:09:02.994Z,34.27
2017-11-04T17:11:30.413Z,41.07
2017-11-04T17:13:57.905Z,37.93
2017-11-04T17:16:25.546Z,42.83
2017-11-04T17:18:52.976Z,44.77
2017-11-04T17:21:20.419Z,45.03
2017-11-04T17:23:48.954Z,43.97
2017-11-04T17:26:16.387Z,47.57
2017-11-04T17:28:43.821Z,50.87
2017-11-04T17:31:12.029Z,51.30
2017-11-04T17:33:39.461Z,51.67
2017-11-04T17:36:07.677Z,58.23
2017-11-04T17:38:35.441Z,50.40
2017-11-04T17:41:02.873Z,52.97
2017-11-04T17:43:30.352Z,53.20
2017-11-04T17:45:58.140Z,56.17
2017-11-04T17:48:25.580Z,55.70
2017-11-04T17:50:53.023Z,54.87
2017-11-04T17:53:20.494Z,54.27
2017-11-04T17:55:47.929Z,59.73
2017-11-04T17:58:15.364Z,58.63
2017-11-04T18:00:43.896Z,56.10
2017-11-04T18:03:11.326Z,62.83
2017-11-04T18:05:38.761Z,59.60
2017-11-04T18:08:06.975Z,61.10
2017-11-04T18:10:34.449Z,61.83
2017-11-04T18:13:01.902Z,59.37
2017-11-04T18:15:30.136Z,62.57
2017-11-04T18:17:57.653Z,59.23
2017-11-04T18:20:25.097Z,61.43
2017-11-04T18:22:52.858Z,63.07
2017-11-04T18:25:20.299Z,63.03
2017-11-04T18:27:47.763Z,60.47
2017-11-04T18:30:15.210Z,67.27
2017-11-04T18:32:42.645Z,61.65
2017-11-04T18:35:10.083Z,56.73
2017-11-04T18:37:38.317Z,58.72
2017-11-04T18:40:05.750Z,51.87
2017-11-04T18:42:33.201Z,54.37
2017-11-04T18:45:00.997Z,49.03
2017-11-04T18:47:28.422Z,50.80
2017-11-04T18:49:55.904Z,52.07
2017-11-04T18:52:23.365Z,50.03
2017-11-04T18:54:50.882Z,54.07
2017-11-04T18:57:19.086Z,52.13
2017-11-04T18:59:46.765Z,50.57
2017-11-04T19:02:14.217Z,56.90
2017-11-04T19:04:41.648Z,53.87
2017-11-04T19:07:09.089Z,49.43
2017-11-04T19:09:37.338Z,50.23
2017-11-04T19:12:04.756Z,49.50
2017-11-04T19:14:32.208Z,48.80
2017-11-04T19:16:59.667Z,54.87
2017-11-04T19:19:27.073Z,55.83
2017-11-04T19:21:54.778Z,49.33
2017-11-04T19:24:22.257Z,50.30
2017-11-04T19:26:49.700Z,53.60
2017-11-04T19:29:17.202Z,52.50
2017-11-04T19:31:45.413Z,49.33
2017-11-04T19:34:12.860Z,55.87
2017-11-04T19:36:41.386Z,53.20
2017-11-04T19:39:08.819Z,52.37
2017-11-04T19:41:36.254Z,55.10
2017-11-04T19:44:04.569Z,52.70
2017-11-04T19:46:32.006Z,52.73
2017-11-04T19:48:59.490Z,52.60
2017-11-04T19:51:27.255Z,48.47
2017-11-04T19:53:54.681Z,51.23
2017-11-04T19:56:22.113Z,51.73
2017-11-04T19:58:50.624Z,53.20
2017-11-04T20:01:18.061Z,51.13
2017-11-04T20:03:46.282Z,58.30
2017-11-04T20:06:14.035Z,48.13
2017-11-04T20:08:41.461Z,44.87
2017-11-04T20:11:08.922Z,37.63
2017-11-04T20:13:37.438Z,25.67
2017-11-04T20:16:04.873Z,26.60
2017-11-04T20:18:32.357Z,14.43
2017-11-04T20:21:00.121Z,17.27
2017-11-04T20:23:27.563Z,15.63
2017-11-04T20:25:55.038Z,17.07
2017-11-04T20:28:22.789Z,16.37
2017-11-04T20:30:50.261Z,15.50
2017-11-04T20:33:17.726Z,14.67
2017-11-04T20:35:45.164Z,14.67
2017-11-04T20:38:12.597Z,12.63
2017-11-04T20:40:40.101Z,12.47
2017-11-04T20:43:07.549Z,12.13
2017-11-04T20:45:34.984Z,11.40
2017-11-04T20:48:02.409Z,14.80
2017-11-04T20:50:30.933Z,14.27
2017-11-04T20:52:58.455Z,17.00
2017-11-04T20:55:26.643Z,13.13
2017-11-04T20:57:54.126Z,15.60
2017-11-04T21:00:21.582Z,11.13
2017-11-04T21:02:49.011Z,10.57
2017-11-04T21:05:16.497Z,9.37
2017-11-04T21:07:43.929Z,14.03
2017-11-04T21:10:11.358Z,10.40
2017-11-04T21:12:39.583Z,6.10
2017-11-04T21:15:07.013Z,12.00
2017-11-04T21:17:34.441Z,10.57
2017-11-04T21:20:01.961Z,11.20
2017-11-04T21:22:29.421Z,12.07
2017-11-04T21:24:56.859Z,15.30
2017-11-04T21:27:24.525Z,12.80
2017-11-04T21:29:51.964Z,18.13
2017-11-04T21:32:19.394Z,24.47
2017-11-04T21:34:47.613Z,19.40
2017-11-04T21:37:15.046Z,21.50
2017-11-04T21:39:42.477Z,15.10
2017-11-04T21:42:09.997Z,15.13
2017-11-04T21:44:37.473Z,15.33
2017-11-04T21:47:04.899Z,12.43
2017-11-04T21:49:32.642Z,18.27
2017-11-04T21:52:00.129Z,12.23
2017-11-04T21:54:27.585Z,20.47
2017-11-04T21:56:55.050Z,14.50
2017-11-04T21:59:22.538Z,22.63
2017-11-04T22:01:49.977Z,25.20
2017-11-04T22:04:17.736Z,41.27
2017-11-04T22:06:45.169Z,22.50
2017-11-04T22:09:12.642Z,21.80
2017-11-04T22:11:40.411Z,12.17
2017-11-04T22:14:07.843Z,18.73
2017-11-04T22:16:35.311Z,21.60
2017-11-04T22:19:03.081Z,21.77
2017-11-04T22:21:30.525Z,14.83
2017-11-04T22:23:58.027Z,14.53
2017-11-04T22:26:25.757Z,20.50
2017-11-04T22:28:53.189Z,17.47
2017-11-04T22:31:20.626Z,12.27
2017-11-04T22:33:48.944Z,16.17
2017-11-04T22:36:16.387Z,18.77
2017-11-04T22:38:43.866Z,15.00
2017-11-04T22:41:11.623Z,8.63
2017-11-04T22:43:39.081Z,18.73
2017-11-04T22:46:06.540Z,20.20
2017-11-04T22:48:33.996Z,11.70
2017-11-04T22:51:01.453Z,10.43
2017-11-04T22:53:28.888Z,19.40
2017-11-04T22:55:56.564Z,13.67
2017-11-04T22:58:24.030Z,12.33
2017-11-04T23:00:51.487Z,16.10
2017-11-04T23:03:19.249Z,17.10
2017-11-04T23:05:46.757Z,15.50
2017-11-04T23:08:14.192Z,12.03
2017-11-04T23:10:41.726Z,17.23
2017-11-04T23:13:09.182Z,14.63
2017-11-04T23:15:36.618Z,20.87
2017-11-04T23:18:04.094Z,15.73
2017-11-04T23:20:31.561Z,16.90
2017-11-04T23:22:59.023Z,19.63
2017-11-04T23:25:26.753Z,12.10
2017-11-04T23:27:54.233Z,18.20
2017-11-04T23:30:21.662Z,15.17
2017-11-04T23:32:49.353Z,19.43
2017-11-04T23:35:16.780Z,22.10
2017-11-04T23:37:44.214Z,22.23
2017-11-04T23:40:12.756Z,17.00
2017-11-04T23:42:40.186Z,11.43
2017-11-04T23:45:07.613Z,15.50
2017-11-04T23:47:35.829Z,16.00
2017-11-04T23:50:03.261Z,20.40
2017-11-04T23:52:31.454Z,16.77
2017-11-04T23:54:58.901Z,17.83
2017-11-04T23:57:26.384Z,16.20
2017-11-04T23:59:53.813Z,16.20
